sensor_id;sensor_type;location;lat;lon;timestamp;pressure;altitude;pressure_sealevel;temperature;humidity
11347;BME280;5728;42.722;23.258;2022-09-03T00:00:36;94726.81;;;16.09;100.00
11347;BME280;5728;42.722;23.258;2022-09-03T00:03:11;94730.38;;;16.08;100.00
11347;BME280;5728;42.722;23.258;2022-09-03T00:05:45;94742.66;;;16.06;100.00
11347;BME280;5728;42.722;23.258;2022-09-03T00:08:17;94744.34;;;16.07;100.00
11347;BME280;5728;42.722;23.258;2022-09-03T00:10:50;94747.88;;;16.06;100.00
11347;BME280;5728;42.722;23.258;2022-09-03T00:13:22;94740.25;;;16.00;100.00
11347;BME280;5728;42.722;23.258;2022-09-03T00:15:50;94741.28;;;15.95;100.00
11347;BME280;5728;42.722;23.258;2022-09-03T00:18:20;94751.41;;;16.05;100.00
11347;BME280;5728;42.722;23.258;2022-09-03T00:20:53;94736.47;;;15.83;100.00
11347;BME280;5728;42.722;23.258;2022-09-03T00:23:25;94738.31;;;15.81;100.00
11347;BME280;5728;42.722;23.258;2022-09-03T00:25:55;94731.25;;;15.83;100.00
11347;BME280;5728;42.722;23.258;2022-09-03T00:28:27;94729.78;;;15.76;100.00
11347;BME280;5728;42.722;23.258;2022-09-03T00:31:06;94736.63;;;15.80;100.00
11347;BME280;5728;42.722;23.258;2022-09-03T00:33:38;94736.88;;;15.73;100.00
11347;BME280;5728;42.722;23.258;2022-09-03T00:36:14;94719.41;;;15.73;100.00
11347;BME280;5728;42.722;23.258;2022-09-03T00:38:42;94721.13;;;15.74;100.00
11347;BME280;5728;42.722;23.258;2022-09-03T00:41:18;94717.84;;;15.69;100.00
11347;BME280;5728;42.722;23.258;2022-09-03T00:44:01;94719.22;;;15.79;100.00
11347;BME280;5728;42.722;23.258;2022-09-03T00:46:39;94723.25;;;15.63;100.00
11347;BME280;5728;42.722;23.258;2022-09-03T00:49:28;94723.16;;;15.66;100.00
11347;BME280;5728;42.722;23.258;2022-09-03T00:52:03;94723.25;;;15.63;100.00
11347;BME280;5728;42.722;23.258;2022-09-03T00:54:41;94732.34;;;15.78;100.00
11347;BME280;5728;42.722;23.258;2022-09-03T00:57:21;94728.78;;;15.80;100.00
11347;BME280;5728;42.722;23.258;2022-09-03T00:59:56;94728.91;;;15.76;100.00
11347;BME280;5728;42.722;23.258;2022-09-03T01:02:35;94725.50;;;15.74;100.00
11347;BME280;5728;42.722;23.258;2022-09-03T01:05:10;94720.69;;;15.86;100.00
11347;BME280;5728;42.722;23.258;2022-09-03T01:07:42;94724.34;;;15.82;100.00
11347;BME280;5728;42.722;23.258;2022-09-03T01:10:20;94721.25;;;15.71;100.00
11347;BME280;5728;42.722;23.258;2022-09-03T01:12:54;94717.75;;;15.71;100.00
11347;BME280;5728;42.722;23.258;2022-09-03T01:15:29;94736.19;;;15.68;100.00
11347;BME280;5728;42.722;23.258;2022-09-03T01:18:09;94719.84;;;15.61;100.00
11347;BME280;5728;42.722;23.258;2022-09-03T01:20:53;94728.91;;;15.76;100.00
11347;BME280;5728;42.722;23.258;2022-09-03T01:26:34;94742.94;;;15.73;100.00
11347;BME280;5728;42.722;23.258;2022-09-03T01:29:13;94750.91;;;15.70;100.00
11347;BME280;5728;42.722;23.258;2022-09-03T01:31:51;94757.94;;;15.68;100.00
11347;BME280;5728;42.722;23.258;2022-09-03T01:34:33;94748.84;;;15.78;100.00
11347;BME280;5728;42.722;23.258;2022-09-03T01:37:12;94757.63;;;15.77;100.00
11347;BME280;5728;42.722;23.258;2022-09-03T01:39:47;94761.41;;;15.69;100.00
11347;BME280;5728;42.722;23.258;2022-09-03T01:42:23;94762.72;;;15.57;100.00
11347;BME280;5728;42.722;23.258;2022-09-03T01:45:02;94768.03;;;15.54;100.00
11347;BME280;5728;42.722;23.258;2022-09-03T01:47:42;94766.63;;;15.69;100.00
11347;BME280;5728;42.722;23.258;2022-09-03T01:50:23;94753.53;;;15.70;100.00
11347;BME280;5728;42.722;23.258;2022-09-03T01:52:55;94746.09;;;15.83;100.00
11347;BME280;5728;42.722;23.258;2022-09-03T01:55:30;94750.75;;;15.75;100.00
11347;BME280;5728;42.722;23.258;2022-09-03T01:57:59;94754.56;;;15.89;100.00
11347;BME280;5728;42.722;23.258;2022-09-03T02:00:33;94754.16;;;15.77;100.00
11347;BME280;5728;42.722;23.258;2022-09-03T02:03:03;94749.13;;;15.71;100.00
11347;BME280;5728;42.722;23.258;2022-09-03T02:05:31;94743.06;;;15.70;100.00
11347;BME280;5728;42.722;23.258;2022-09-03T02:08:01;94740.56;;;15.67;100.00
11347;BME280;5728;42.722;23.258;2022-09-03T02:10:32;94754.75;;;15.60;100.00
11347;BME280;5728;42.722;23.258;2022-09-03T02:13:04;94754.50;;;15.68;100.00
11347;BME280;5728;42.722;23.258;2022-09-03T02:15:34;94766.59;;;15.70;100.00
11347;BME280;5728;42.722;23.258;2022-09-03T02:18:06;94760.81;;;15.61;100.00
11347;BME280;5728;42.722;23.258;2022-09-03T02:20:36;94758.19;;;15.62;100.00
11347;BME280;5728;42.722;23.258;2022-09-03T02:23:04;94753.56;;;15.69;100.00
11347;BME280;5728;42.722;23.258;2022-09-03T02:25:34;94751.38;;;15.81;100.00
11347;BME280;5728;42.722;23.258;2022-09-03T02:28:02;94763.16;;;15.68;100.00
11347;BME280;5728;42.722;23.258;2022-09-03T02:30:30;94762.44;;;15.65;100.00
11347;BME280;5728;42.722;23.258;2022-09-03T02:32:58;94767.59;;;15.66;100.00
11347;BME280;5728;42.722;23.258;2022-09-03T02:35:25;94775.34;;;15.69;100.00
11347;BME280;5728;42.722;23.258;2022-09-03T02:37:52;94770.00;;;15.48;100.00
11347;BME280;5728;42.722;23.258;2022-09-03T02:40:19;94762.88;;;15.53;100.00
11347;BME280;5728;42.722;23.258;2022-09-03T02:42:46;94764.56;;;15.54;100.00
11347;BME280;5728;42.722;23.258;2022-09-03T02:45:20;94771.25;;;15.62;100.00
11347;BME280;5728;42.722;23.258;2022-09-03T02:47:52;94776.84;;;15.52;100.00
11347;BME280;5728;42.722;23.258;2022-09-03T02:50:22;94779.50;;;15.50;100.00
11347;BME280;5728;42.722;23.258;2022-09-03T02:52:49;94778.72;;;15.48;100.00
11347;BME280;5728;42.722;23.258;2022-09-03T02:55:18;94768.38;;;15.70;100.00
11347;BME280;5728;42.722;23.258;2022-09-03T02:57:45;94795.91;;;15.54;100.00
11347;BME280;5728;42.722;23.258;2022-09-03T03:00:13;94777.53;;;15.57;100.00
11347;BME280;5728;42.722;23.258;2022-09-03T03:02:40;94773.75;;;15.65;100.00
11347;BME280;5728;42.722;23.258;2022-09-03T03:05:08;94765.66;;;15.48;100.00
11347;BME280;5728;42.722;23.258;2022-09-03T03:07:40;94772.78;;;15.68;100.00
11347;BME280;5728;42.722;23.258;2022-09-03T03:10:08;94771.94;;;15.67;100.00
11347;BME280;5728;42.722;23.258;2022-09-03T03:12:35;94772.94;;;15.63;100.00
11347;BME280;5728;42.722;23.258;2022-09-03T03:15:02;94768.94;;;15.53;100.00
11347;BME280;5728;42.722;23.258;2022-09-03T03:17:29;94772.84;;;15.40;100.00
11347;BME280;5728;42.722;23.258;2022-09-03T03:19:56;94770.09;;;15.45;100.00
11347;BME280;5728;42.722;23.258;2022-09-03T03:22:22;94774.75;;;15.61;100.00
11347;BME280;5728;42.722;23.258;2022-09-03T03:24:51;94767.44;;;15.46;100.00
11347;BME280;5728;42.722;23.258;2022-09-03T03:27:19;94777.69;;;15.52;100.00
11347;BME280;5728;42.722;23.258;2022-09-03T03:29:46;94768.50;;;15.41;100.00
11347;BME280;5728;42.722;23.258;2022-09-03T03:32:13;94769.38;;;15.40;100.00
11347;BME280;5728;42.722;23.258;2022-09-03T03:34:40;94769.78;;;15.54;100.00
11347;BME280;5728;42.722;23.258;2022-09-03T03:37:07;94764.78;;;15.48;100.00
11347;BME280;5728;42.722;23.258;2022-09-03T03:39:33;94770.44;;;15.60;100.00
11347;BME280;5728;42.722;23.258;2022-09-03T03:42:02;94770.66;;;15.54;100.00
11347;BME280;5728;42.722;23.258;2022-09-03T03:44:29;94778.13;;;15.65;100.00
11347;BME280;5728;42.722;23.258;2022-09-03T03:46:55;94765.41;;;15.54;100.00
11347;BME280;5728;42.722;23.258;2022-09-03T03:49:22;94773.09;;;15.59;100.00
11347;BME280;5728;42.722;23.258;2022-09-03T03:51:49;94776.41;;;15.64;100.00
11347;BME280;5728;42.722;23.258;2022-09-03T03:54:16;94774.72;;;15.63;100.00
11347;BME280;5728;42.722;23.258;2022-09-03T03:56:43;94775.25;;;15.72;100.00
11347;BME280;5728;42.722;23.258;2022-09-03T03:59:12;94779.97;;;15.61;100.00
11347;BME280;5728;42.722;23.258;2022-09-03T04:01:38;94776.72;;;15.55;100.00
11347;BME280;5728;42.722;23.258;2022-09-03T04:04:05;94776.47;;;15.62;100.00
11347;BME280;5728;42.722;23.258;2022-09-03T04:06:32;94765.53;;;15.51;100.00
11347;BME280;5728;42.722;23.258;2022-09-03T04:08:59;94766.88;;;15.63;100.00
11347;BME280;5728;42.722;23.258;2022-09-03T04:11:26;94771.16;;;15.65;100.00
11347;BME280;5728;42.722;23.258;2022-09-03T04:13:54;94766.59;;;15.70;100.00
11347;BME280;5728;42.722;23.258;2022-09-03T04:16:23;94766.81;;;15.64;100.00
11347;BME280;5728;42.722;23.258;2022-09-03T04:18:52;94768.00;;;15.80;100.00
11347;BME280;5728;42.722;23.258;2022-09-03T04:21:20;94770.69;;;16.02;100.00
11347;BME280;5728;42.722;23.258;2022-09-03T04:23:48;94770.75;;;16.01;100.00
11347;BME280;5728;42.722;23.258;2022-09-03T04:26:17;94775.63;;;16.10;100.00
11347;BME280;5728;42.722;23.258;2022-09-03T04:28:44;94785.84;;;15.92;100.00
11347;BME280;5728;42.722;23.258;2022-09-03T04:31:12;94790.38;;;15.87;100.00
11347;BME280;5728;42.722;23.258;2022-09-03T04:33:41;94795.06;;;16.03;100.00
11347;BME280;5728;42.722;23.258;2022-09-03T04:36:09;94790.16;;;16.18;100.00
11347;BME280;5728;42.722;23.258;2022-09-03T04:38:37;94800.81;;;16.12;100.00
11347;BME280;5728;42.722;23.258;2022-09-03T04:41:04;94805.63;;;16.00;100.00
11347;BME280;5728;42.722;23.258;2022-09-03T04:43:32;94817.06;;;15.72;100.00
11347;BME280;5728;42.722;23.258;2022-09-03T04:46:00;94808.69;;;15.87;100.00
11347;BME280;5728;42.722;23.258;2022-09-03T04:48:28;94815.06;;;16.04;100.00
11347;BME280;5728;42.722;23.258;2022-09-03T04:51:03;94822.66;;;15.86;100.00
11347;BME280;5728;42.722;23.258;2022-09-03T04:53:32;94825.13;;;15.66;100.00
11347;BME280;5728;42.722;23.258;2022-09-03T04:55:59;94832.66;;;15.75;100.00
11347;BME280;5728;42.722;23.258;2022-09-03T04:58:26;94829.22;;;15.73;100.00
11347;BME280;5728;42.722;23.258;2022-09-03T05:00:52;94831.69;;;15.78;100.00
11347;BME280;5728;42.722;23.258;2022-09-03T05:03:19;94826.06;;;15.88;100.00
11347;BME280;5728;42.722;23.258;2022-09-03T05:05:56;94840.06;;;15.87;100.00
11347;BME280;5728;42.722;23.258;2022-09-03T05:08:24;94840.06;;;15.87;100.00
11347;BME280;5728;42.722;23.258;2022-09-03T05:10:57;94844.59;;;15.82;100.00
11347;BME280;5728;42.722;23.258;2022-09-03T05:13:25;94840.06;;;15.87;100.00
11347;BME280;5728;42.722;23.258;2022-09-03T05:15:58;94849.66;;;15.62;100.00
11347;BME280;5728;42.722;23.258;2022-09-03T05:18:24;94851.47;;;15.60;100.00
11347;BME280;5728;42.722;23.258;2022-09-03T05:20:57;94845.84;;;15.72;100.00
11347;BME280;5728;42.722;23.258;2022-09-03T05:23:25;94844.06;;;15.73;100.00
11347;BME280;5728;42.722;23.258;2022-09-03T05:25:56;94842.25;;;15.75;100.00
11347;BME280;5728;42.722;23.258;2022-09-03T05:28:23;94842.03;;;15.81;100.00
11347;BME280;5728;42.722;23.258;2022-09-03T05:30:59;94836.78;;;15.81;100.00
11347;BME280;5728;42.722;23.258;2022-09-03T05:33:26;94832.00;;;15.69;100.00
11347;BME280;5728;42.722;23.258;2022-09-03T05:35:53;94838.78;;;15.74;100.00
11347;BME280;5728;42.722;23.258;2022-09-03T05:38:20;94846.81;;;15.68;100.00
11347;BME280;5728;42.722;23.258;2022-09-03T05:40:48;94850.09;;;16.00;100.00
11347;BME280;5728;42.722;23.258;2022-09-03T05:43:15;94843.13;;;16.00;100.00
11347;BME280;5728;42.722;23.258;2022-09-03T05:45:42;94846.44;;;16.05;100.00
11347;BME280;5728;42.722;23.258;2022-09-03T05:48:09;94846.59;;;16.01;100.00
11347;BME280;5728;42.722;23.258;2022-09-03T05:50:36;94854.72;;;16.16;100.00
11347;BME280;5728;42.722;23.258;2022-09-03T05:53:02;94854.06;;;16.34;100.00
11347;BME280;5728;42.722;23.258;2022-09-03T05:55:29;94853.75;;;16.19;100.00
11347;BME280;5728;42.722;23.258;2022-09-03T05:57:57;94849.59;;;16.38;100.00
11347;BME280;5728;42.722;23.258;2022-09-03T06:00:24;94848.75;;;16.37;100.00
11347;BME280;5728;42.722;23.258;2022-09-03T06:02:51;94855.16;;;16.29;100.00
11347;BME280;5728;42.722;23.258;2022-09-03T06:05:18;94848.56;;;16.42;100.00
11347;BME280;5728;42.722;23.258;2022-09-03T06:07:45;94857.59;;;16.58;100.00
11347;BME280;5728;42.722;23.258;2022-09-03T06:10:14;94862.50;;;16.67;98.94
11347;BME280;5728;42.722;23.258;2022-09-03T06:12:42;94864.53;;;16.59;99.60
11347;BME280;5728;42.722;23.258;2022-09-03T06:15:15;94855.28;;;16.49;99.39
11347;BME280;5728;42.722;23.258;2022-09-03T06:17:42;94858.97;;;16.68;99.77
11347;BME280;5728;42.722;23.258;2022-09-03T06:20:09;94860.06;;;16.84;98.43
11347;BME280;5728;42.722;23.258;2022-09-03T06:22:36;94866.34;;;17.03;97.78
11347;BME280;5728;42.722;23.258;2022-09-03T06:25:04;94860.28;;;17.45;97.39
11347;BME280;5728;42.722;23.258;2022-09-03T06:27:30;94863.94;;;17.64;95.93
11347;BME280;5728;42.722;23.258;2022-09-03T06:29:57;94868.88;;;18.12;93.11
11347;BME280;5728;42.722;23.258;2022-09-03T06:32:25;94879.28;;;17.73;92.58
11347;BME280;5728;42.722;23.258;2022-09-03T06:34:53;94869.59;;;17.95;93.53
11347;BME280;5728;42.722;23.258;2022-09-03T06:37:20;94873.47;;;18.07;91.33
11347;BME280;5728;42.722;23.258;2022-09-03T06:39:47;94873.34;;;18.10;92.63
11347;BME280;5728;42.722;23.258;2022-09-03T06:42:14;94867.50;;;18.03;91.69
11347;BME280;5728;42.722;23.258;2022-09-03T06:44:42;94864.59;;;17.69;92.42
11347;BME280;5728;42.722;23.258;2022-09-03T06:47:10;94882.63;;;17.55;94.02
11347;BME280;5728;42.722;23.258;2022-09-03T06:49:38;94903.44;;;17.81;93.81
11347;BME280;5728;42.722;23.258;2022-09-03T06:52:05;94902.44;;;17.83;93.81
11347;BME280;5728;42.722;23.258;2022-09-03T06:54:31;94875.78;;;18.14;92.39
11347;BME280;5728;42.722;23.258;2022-09-03T06:56:58;94875.00;;;18.12;91.45
11347;BME280;5728;42.722;23.258;2022-09-03T06:59:25;94871.22;;;18.18;91.12
11347;BME280;5728;42.722;23.258;2022-09-03T07:01:52;94868.59;;;17.98;91.74
11347;BME280;5728;42.722;23.258;2022-09-03T07:04:19;94883.44;;;18.19;91.04
11347;BME280;5728;42.722;23.258;2022-09-03T07:06:48;94883.84;;;18.30;90.33
11347;BME280;5728;42.722;23.258;2022-09-03T07:09:15;94883.78;;;18.31;88.62
11347;BME280;5728;42.722;23.258;2022-09-03T07:11:43;94885.50;;;18.12;91.16
11347;BME280;5728;42.722;23.258;2022-09-03T07:14:12;94894.72;;;18.41;89.19
11347;BME280;5728;42.722;23.258;2022-09-03T07:16:40;94892.69;;;18.68;88.20
11347;BME280;5728;42.722;23.258;2022-09-03T07:19:08;94885.47;;;18.73;88.18
11347;BME280;5728;42.722;23.258;2022-09-03T07:21:35;94894.50;;;19.04;87.12
11347;BME280;5728;42.722;23.258;2022-09-03T07:24:04;94887.47;;;19.42;85.67
11347;BME280;5728;42.722;23.258;2022-09-03T07:26:33;94895.50;;;19.02;86.08
11347;BME280;5728;42.722;23.258;2022-09-03T07:29:00;94902.28;;;18.69;87.88
11347;BME280;5728;42.722;23.258;2022-09-03T07:31:29;94906.34;;;18.56;88.33
11347;BME280;5728;42.722;23.258;2022-09-03T07:33:57;94908.47;;;18.68;88.37
11347;BME280;5728;42.722;23.258;2022-09-03T07:36:26;94896.88;;;18.72;87.60
11347;BME280;5728;42.722;23.258;2022-09-03T07:38:55;94909.34;;;18.87;87.58
11347;BME280;5728;42.722;23.258;2022-09-03T07:41:24;94912.66;;;18.72;85.95
11347;BME280;5728;42.722;23.258;2022-09-03T07:43:51;94910.56;;;18.60;87.33
11347;BME280;5728;42.722;23.258;2022-09-03T07:46:20;94908.81;;;18.79;85.98
11347;BME280;5728;42.722;23.258;2022-09-03T07:48:49;94911.75;;;18.73;86.58
11347;BME280;5728;42.722;23.258;2022-09-03T07:51:16;94907.03;;;19.18;84.31
11347;BME280;5728;42.722;23.258;2022-09-03T07:53:43;94914.91;;;19.55;82.11
11347;BME280;5728;42.722;23.258;2022-09-03T07:56:10;94914.41;;;19.66;81.73
11347;BME280;5728;42.722;23.258;2022-09-03T07:58:39;94912.59;;;20.19;81.07
11347;BME280;5728;42.722;23.258;2022-09-03T08:01:08;94914.44;;;19.83;81.40
11347;BME280;5728;42.722;23.258;2022-09-03T08:03:35;94918.88;;;20.17;79.74
11347;BME280;5728;42.722;23.258;2022-09-03T08:06:04;94912.44;;;20.22;80.17
11347;BME280;5728;42.722;23.258;2022-09-03T08:08:31;94920.19;;;19.91;80.39
11347;BME280;5728;42.722;23.258;2022-09-03T08:11:05;94912.72;;;20.35;80.49
11347;BME280;5728;42.722;23.258;2022-09-03T08:13:36;94915.31;;;20.18;79.19
11347;BME280;5728;42.722;23.258;2022-09-03T08:16:05;94918.94;;;20.67;78.54
11347;BME280;5728;42.722;23.258;2022-09-03T08:18:33;94922.16;;;20.56;78.71
11347;BME280;5728;42.722;23.258;2022-09-03T08:21:02;94914.75;;;20.80;77.13
11347;BME280;5728;42.722;23.258;2022-09-03T08:23:30;94908.81;;;20.92;75.83
11347;BME280;5728;42.722;23.258;2022-09-03T08:25:57;94912.50;;;21.38;74.83
11347;BME280;5728;42.722;23.258;2022-09-03T08:28:25;94911.13;;;21.31;72.95
11347;BME280;5728;42.722;23.258;2022-09-03T08:30:53;94911.69;;;20.87;74.91
11347;BME280;5728;42.722;23.258;2022-09-03T08:33:24;94912.66;;;21.19;75.88
11347;BME280;5728;42.722;23.258;2022-09-03T08:36:04;94915.56;;;20.48;77.97
11347;BME280;5728;42.722;23.258;2022-09-03T08:38:33;94917.63;;;20.07;79.32
11347;BME280;5728;42.722;23.258;2022-09-03T08:41:05;94915.13;;;19.87;79.67
11347;BME280;5728;42.722;23.258;2022-09-03T08:43:41;94909.66;;;20.08;79.92
11347;BME280;5728;42.722;23.258;2022-09-03T08:46:13;94904.53;;;20.05;77.66
11347;BME280;5728;42.722;23.258;2022-09-03T08:48:42;94921.56;;;20.34;78.20
11347;BME280;5728;42.722;23.258;2022-09-03T08:51:12;94912.47;;;20.57;76.36
11347;BME280;5728;42.722;23.258;2022-09-03T08:53:45;94913.16;;;20.93;75.80
11347;BME280;5728;42.722;23.258;2022-09-03T08:56:19;94912.34;;;21.41;74.76
11347;BME280;5728;42.722;23.258;2022-09-03T08:58:47;94931.41;;;21.93;73.82
11347;BME280;5728;42.722;23.258;2022-09-03T09:01:21;94910.03;;;22.57;70.83
11347;BME280;5728;42.722;23.258;2022-09-03T09:04:01;94921.72;;;22.23;70.72
11347;BME280;5728;42.722;23.258;2022-09-03T09:06:34;94910.34;;;22.22;70.42
11347;BME280;5728;42.722;23.258;2022-09-03T09:09:11;94923.00;;;22.32;70.77
11347;BME280;5728;42.722;23.258;2022-09-03T09:11:49;94911.63;;;22.75;69.62
11347;BME280;5728;42.722;23.258;2022-09-03T09:14:28;94920.31;;;22.17;70.24
11347;BME280;5728;42.722;23.258;2022-09-03T09:17:03;94923.06;;;22.00;70.84
11347;BME280;5728;42.722;23.258;2022-09-03T09:19:43;94921.34;;;21.52;72.78
11347;BME280;5728;42.722;23.258;2022-09-03T09:22:22;94922.13;;;21.39;72.66
11347;BME280;5728;42.722;23.258;2022-09-03T09:24:53;94925.84;;;21.35;72.65
11347;BME280;5728;42.722;23.258;2022-09-03T09:27:23;94920.06;;;20.95;73.42
11347;BME280;5728;42.722;23.258;2022-09-03T09:29:50;94918.81;;;21.51;72.96
11347;BME280;5728;42.722;23.258;2022-09-03T09:32:18;94920.69;;;21.49;72.52
11347;BME280;5728;42.722;23.258;2022-09-03T09:34:47;94925.16;;;22.55;71.10
11347;BME280;5728;42.722;23.258;2022-09-03T09:37:14;94922.00;;;22.78;67.85
11347;BME280;5728;42.722;23.258;2022-09-03T09:39:54;94925.56;;;22.63;68.14
11347;BME280;5728;42.722;23.258;2022-09-03T09:42:22;94921.72;;;22.97;65.92
11347;BME280;5728;42.722;23.258;2022-09-03T09:44:49;94924.09;;;22.73;69.21
11347;BME280;5728;42.722;23.258;2022-09-03T09:47:21;94921.44;;;22.87;66.71
11347;BME280;5728;42.722;23.258;2022-09-03T09:49:54;94922.78;;;23.36;65.09
11347;BME280;5728;42.722;23.258;2022-09-03T09:52:22;94931.50;;;23.38;63.84
11347;BME280;5728;42.722;23.258;2022-09-03T09:54:51;94923.81;;;22.92;65.82
11347;BME280;5728;42.722;23.258;2022-09-03T09:57:22;94919.00;;;22.98;65.44
11347;BME280;5728;42.722;23.258;2022-09-03T09:59:49;94923.34;;;23.41;65.08
11347;BME280;5728;42.722;23.258;2022-09-03T10:02:27;94930.44;;;23.55;64.86
11347;BME280;5728;42.722;23.258;2022-09-03T10:04:59;94930.19;;;24.40;63.29
11347;BME280;5728;42.722;23.258;2022-09-03T10:07:28;94920.28;;;24.68;60.14
11347;BME280;5728;42.722;23.258;2022-09-03T10:10:02;94923.81;;;24.30;61.68
11347;BME280;5728;42.722;23.258;2022-09-03T10:12:36;94924.78;;;24.29;60.79
11347;BME280;5728;42.722;23.258;2022-09-03T10:15:11;94923.53;;;24.99;59.76
11347;BME280;5728;42.722;23.258;2022-09-03T10:17:51;94925.13;;;25.88;57.82
11347;BME280;5728;42.722;23.258;2022-09-03T10:20:25;94923.75;;;24.96;58.35
11347;BME280;5728;42.722;23.258;2022-09-03T10:23:06;94925.75;;;24.40;60.19
11347;BME280;5728;42.722;23.258;2022-09-03T10:25:41;94924.63;;;23.77;62.08
11347;BME280;5728;42.722;23.258;2022-09-03T10:28:15;94917.41;;;23.38;63.72
11347;BME280;5728;42.722;23.258;2022-09-03T10:30:56;94919.63;;;24.65;62.04
11347;BME280;5728;42.722;23.258;2022-09-03T10:33:30;94918.97;;;24.36;61.17
11347;BME280;5728;42.722;23.258;2022-09-03T10:36:09;94918.91;;;23.00;65.00
11347;BME280;5728;42.722;23.258;2022-09-03T10:38:39;94920.84;;;22.38;68.23
11347;BME280;5728;42.722;23.258;2022-09-03T10:41:18;94919.00;;;22.98;67.13
11347;BME280;5728;42.722;23.258;2022-09-03T10:44:12;94916.97;;;23.72;63.80
11347;BME280;5728;42.722;23.258;2022-09-03T10:46:54;94930.44;;;23.96;63.64
11347;BME280;5728;42.722;23.258;2022-09-03T10:49:40;94922.75;;;23.79;64.13
11347;BME280;5728;42.722;23.258;2022-09-03T10:52:20;94918.91;;;24.75;61.65
11347;BME280;5728;42.722;23.258;2022-09-03T10:55:09;94920.69;;;25.02;58.64
11347;BME280;5728;42.722;23.258;2022-09-03T10:57:46;94915.97;;;25.43;59.01
11347;BME280;5728;42.722;23.258;2022-09-03T11:00:15;94926.19;;;25.85;56.81
11347;BME280;5728;42.722;23.258;2022-09-03T11:05:59;94919.88;;;25.75;55.85
11347;BME280;5728;42.722;23.258;2022-09-03T11:08:31;94922.81;;;24.97;58.64
11347;BME280;5728;42.722;23.258;2022-09-03T11:11:08;94912.50;;;25.30;59.83
11347;BME280;5728;42.722;23.258;2022-09-03T11:13:40;94915.88;;;25.57;57.74
11347;BME280;5728;42.722;23.258;2022-09-03T11:16:14;94924.84;;;25.80;56.53
11347;BME280;5728;42.722;23.258;2022-09-03T11:18:48;94915.41;;;27.28;53.79
11347;BME280;5728;42.722;23.258;2022-09-03T11:21:17;94917.75;;;27.54;52.74
11347;BME280;5728;42.722;23.258;2022-09-03T11:23:52;94918.88;;;26.25;54.14
11347;BME280;5728;42.722;23.258;2022-09-03T11:26:25;94922.88;;;25.46;57.60
11347;BME280;5728;42.722;23.258;2022-09-03T11:28:56;94926.59;;;25.18;57.88
11347;BME280;5728;42.722;23.258;2022-09-03T11:31:34;94921.09;;;25.95;56.69
11347;BME280;5728;42.722;23.258;2022-09-03T11:34:06;94915.00;;;26.29;54.82
11347;BME280;5728;42.722;23.258;2022-09-03T11:36:35;94916.75;;;27.11;52.81
11347;BME280;5728;42.722;23.258;2022-09-03T11:39:17;94912.88;;;27.26;51.52
11347;BME280;5728;42.722;23.258;2022-09-03T11:41:56;94908.88;;;26.75;52.23
11347;BME280;5728;42.722;23.258;2022-09-03T11:44:32;94902.75;;;25.79;54.93
11347;BME280;5728;42.722;23.258;2022-09-03T11:47:13;94904.81;;;25.38;57.10
11347;BME280;5728;42.722;23.258;2022-09-03T11:49:45;94905.66;;;25.64;56.98
11347;BME280;5728;42.722;23.258;2022-09-03T11:52:25;94909.06;;;26.84;53.61
11347;BME280;5728;42.722;23.258;2022-09-03T11:54:53;94915.56;;;27.26;52.82
11347;BME280;5728;42.722;23.258;2022-09-03T11:57:25;94911.03;;;27.04;51.26
11347;BME280;5728;42.722;23.258;2022-09-03T11:59:53;94912.00;;;27.14;52.46
11347;BME280;5728;42.722;23.258;2022-09-03T12:02:26;94916.72;;;26.65;53.08
11347;BME280;5728;42.722;23.258;2022-09-03T12:05:10;94899.78;;;27.12;53.14
11347;BME280;5728;42.722;23.258;2022-09-03T12:07:54;94898.94;;;27.11;52.24
11347;BME280;5728;42.722;23.258;2022-09-03T12:10:36;94898.53;;;27.51;50.77
11347;BME280;5728;42.722;23.258;2022-09-03T12:13:16;94893.31;;;28.25;49.91
11347;BME280;5728;42.722;23.258;2022-09-03T12:18:45;94889.91;;;28.87;48.26
11347;BME280;5728;42.722;23.258;2022-09-03T12:21:17;94892.78;;;28.95;47.67
11347;BME280;5728;42.722;23.258;2022-09-03T12:23:46;94895.31;;;27.90;49.05
11347;BME280;5728;42.722;23.258;2022-09-03T12:26:16;94893.44;;;26.21;53.09
11347;BME280;5728;42.722;23.258;2022-09-03T12:28:45;94896.81;;;25.99;55.20
11347;BME280;5728;42.722;23.258;2022-09-03T12:31:15;94884.88;;;26.87;52.75
11347;BME280;5728;42.722;23.258;2022-09-03T12:33:50;94882.53;;;27.51;49.15
11347;BME280;5728;42.722;23.258;2022-09-03T12:36:19;94892.72;;;26.89;51.39
11347;BME280;5728;42.722;23.258;2022-09-03T12:38:46;94887.97;;;27.49;51.00
11347;BME280;5728;42.722;23.258;2022-09-03T12:41:23;94891.06;;;27.99;49.16
11347;BME280;5728;42.722;23.258;2022-09-03T12:43:52;94882.97;;;27.89;49.23
11347;BME280;5728;42.722;23.258;2022-09-03T12:46:22;94889.06;;;27.58;51.39
11347;BME280;5728;42.722;23.258;2022-09-03T12:48:54;94882.84;;;28.33;50.06
11347;BME280;5728;42.722;23.258;2022-09-03T12:51:21;94878.63;;;28.83;46.89
11347;BME280;5728;42.722;23.258;2022-09-03T12:53:50;94878.19;;;29.50;45.80
11347;BME280;5728;42.722;23.258;2022-09-03T12:56:20;94874.03;;;29.66;44.97
11347;BME280;5728;42.722;23.258;2022-09-03T12:58:53;94879.34;;;29.97;44.37
11347;BME280;5728;42.722;23.258;2022-09-03T13:01:25;94867.97;;;28.20;47.09
11347;BME280;5728;42.722;23.258;2022-09-03T13:03:56;94864.78;;;28.69;46.96
11347;BME280;5728;42.722;23.258;2022-09-03T13:06:26;94863.59;;;28.62;46.47
11347;BME280;5728;42.722;23.258;2022-09-03T13:08:57;94854.56;;;28.42;47.00
11347;BME280;5728;42.722;23.258;2022-09-03T13:11:31;94857.59;;;28.17;47.52
11347;BME280;5728;42.722;23.258;2022-09-03T13:14:00;94852.44;;;28.25;46.85
11347;BME280;5728;42.722;23.258;2022-09-03T13:19:29;94838.44;;;29.26;45.21
11347;BME280;5728;42.722;23.258;2022-09-03T13:22:09;94846.22;;;29.79;42.15
11347;BME280;5728;42.722;23.258;2022-09-03T13:24:50;94846.31;;;29.28;43.30
11347;BME280;5728;42.722;23.258;2022-09-03T13:27:25;94835.84;;;29.85;43.53